createdAt,value
2018-12-04T00:02:21.903Z,91.65
2018-12-04T00:04:49.536Z,91.15
2018-12-04T00:07:17.201Z,91.42
2018-12-04T00:09:44.820Z,90.96
2018-12-04T00:12:12.402Z,91.66
2018-12-04T00:14:40.083Z,91.11
2018-12-04T00:17:07.748Z,91.16
2018-12-04T00:19:35.417Z,91.46
2018-12-04T00:22:02.991Z,91.14
2018-12-04T00:24:30.606Z,90.98
2018-12-04T00:26:58.296Z,91.23
2018-12-04T00:29:26.563Z,90.86
2018-12-04T00:31:54.236Z,90.74
2018-12-04T00:34:21.895Z,90.38
2018-12-04T00:36:49.561Z,90.89
2018-12-04T00:39:17.235Z,90.68
2018-12-04T00:41:44.893Z,90.01
2018-12-04T00:44:12.517Z,90.43
2018-12-04T00:46:40.120Z,90.76
2018-12-04T00:49:07.706Z,90.08
2018-12-04T00:51:35.314Z,90.23
2018-12-04T00:54:03.010Z,90.67
2018-12-04T00:56:30.621Z,90.80
2018-12-04T00:58:58.627Z,90.67
2018-12-04T01:01:26.232Z,90.65
2018-12-04T01:03:53.856Z,90.70
2018-12-04T01:06:21.520Z,91.13
2018-12-04T01:08:49.177Z,90.10
2018-12-04T01:11:16.844Z,90.06
2018-12-04T01:13:44.435Z,90.76
2018-12-04T01:16:12.161Z,90.48
2018-12-04T01:18:39.837Z,90.05
2018-12-04T01:21:07.494Z,89.92
2018-12-04T01:23:35.152Z,90.82
2018-12-04T01:26:02.817Z,91.09
2018-12-04T01:28:30.479Z,90.97
2018-12-04T01:30:58.145Z,91.20
2018-12-04T01:33:25.732Z,90.74
2018-12-04T01:35:53.345Z,90.93
2018-12-04T01:38:20.933Z,91.20
2018-12-04T01:40:48.590Z,91.94
2018-12-04T01:43:16.247Z,91.05
2018-12-04T01:45:43.916Z,91.98
2018-12-04T01:48:11.580Z,91.27
2018-12-04T01:50:39.240Z,88.59
2018-12-04T01:53:06.896Z,86.47
2018-12-04T01:55:34.573Z,84.63
2018-12-04T01:58:02.233Z,82.83
2018-12-04T02:00:29.807Z,82.70
2018-12-04T02:02:57.454Z,83.37
2018-12-04T02:05:25.120Z,84.02
2018-12-04T02:07:52.764Z,84.20
2018-12-04T02:10:20.439Z,84.65
2018-12-04T02:12:48.957Z,85.24
2018-12-04T02:15:16.588Z,84.93
2018-12-04T02:17:44.189Z,84.77
2018-12-04T02:20:12.106Z,85.18
2018-12-04T02:22:39.725Z,84.73
2018-12-04T02:25:07.344Z,85.20
2018-12-04T02:27:34.996Z,85.74
2018-12-04T02:30:02.678Z,85.23
2018-12-04T02:32:30.322Z,85.02
2018-12-04T02:34:57.988Z,85.77
2018-12-04T02:37:25.648Z,85.18
2018-12-04T02:39:53.318Z,85.92
2018-12-04T02:42:22.840Z,85.68
2018-12-04T02:44:50.480Z,85.88
2018-12-04T02:47:18.144Z,85.73
2018-12-04T02:49:45.768Z,85.03
2018-12-04T02:52:13.344Z,85.43
2018-12-04T02:54:40.956Z,85.67
2018-12-04T02:57:08.524Z,85.62
2018-12-04T02:59:36.120Z,85.90
2018-12-04T03:02:03.984Z,86.44
2018-12-04T03:04:31.684Z,86.49
2018-12-04T03:06:59.348Z,86.38
2018-12-04T03:09:27.116Z,86.74
2018-12-04T03:11:54.775Z,86.74
2018-12-04T03:14:22.441Z,86.74
2018-12-04T03:16:50.091Z,86.81
2018-12-04T03:19:17.768Z,87.09
2018-12-04T03:21:45.388Z,86.97
2018-12-04T03:24:13.086Z,86.00
2018-12-04T03:26:40.749Z,86.59
2018-12-04T03:29:08.409Z,86.79
2018-12-04T03:31:36.077Z,86.17
2018-12-04T03:34:03.744Z,86.83
2018-12-04T03:36:31.396Z,86.86
2018-12-04T03:38:59.070Z,86.41
2018-12-04T03:41:26.680Z,86.50
2018-12-04T03:43:54.301Z,86.46
2018-12-04T03:46:21.947Z,87.03
2018-12-04T03:48:49.523Z,86.33
2018-12-04T03:51:17.123Z,87.46
2018-12-04T03:53:44.736Z,86.49
2018-12-04T03:56:12.360Z,87.08
2018-12-04T03:58:39.940Z,86.90
2018-12-04T04:01:07.620Z,86.89
2018-12-04T04:03:35.286Z,86.51
2018-12-04T04:06:02.949Z,87.06
2018-12-04T04:08:30.604Z,86.88
2018-12-04T04:10:58.273Z,86.54
2018-12-04T04:13:25.931Z,86.86
2018-12-04T04:15:53.606Z,86.98
2018-12-04T04:18:21.297Z,86.80
2018-12-04T04:20:48.895Z,86.99
2018-12-04T04:23:16.596Z,87.09
2018-12-04T04:25:44.260Z,86.96
2018-12-04T04:28:11.907Z,87.00
2018-12-04T04:30:39.528Z,86.66
2018-12-04T04:33:07.140Z,86.31
2018-12-04T04:35:34.799Z,86.14
2018-12-04T04:38:02.458Z,86.40
2018-12-04T04:40:30.122Z,86.37
2018-12-04T04:42:57.790Z,85.99
2018-12-04T04:45:25.444Z,85.67
2018-12-04T04:47:53.105Z,85.96
2018-12-04T04:50:20.777Z,85.90
2018-12-04T04:52:49.158Z,85.91
2018-12-04T04:55:16.740Z,86.04
2018-12-04T04:57:44.353Z,85.95
2018-12-04T05:00:12.136Z,85.54
2018-12-04T05:02:39.800Z,85.73
2018-12-04T05:05:07.473Z,85.47
2018-12-04T05:07:35.090Z,85.14
2018-12-04T05:10:02.692Z,85.47
2018-12-04T05:12:30.292Z,85.62
2018-12-04T05:14:57.916Z,85.55
2018-12-04T05:17:25.581Z,84.99
2018-12-04T05:19:53.193Z,84.77
2018-12-04T05:22:20.904Z,84.38
2018-12-04T05:24:48.488Z,84.07
2018-12-04T05:27:16.118Z,83.60
2018-12-04T05:29:43.787Z,81.60
2018-12-04T05:32:11.449Z,80.49
2018-12-04T05:34:39.116Z,80.32
2018-12-04T05:37:06.772Z,80.18
2018-12-04T05:39:34.376Z,80.29
2018-12-04T05:42:01.956Z,79.86
2018-12-04T05:44:29.669Z,79.86
2018-12-04T05:46:57.626Z,79.97
2018-12-04T05:49:25.296Z,79.74
2018-12-04T05:51:52.883Z,80.03
2018-12-04T05:54:20.515Z,79.30
2018-12-04T05:56:48.176Z,78.90
2018-12-04T05:59:15.855Z,79.35
2018-12-04T06:01:43.436Z,80.02
2018-12-04T06:04:11.168Z,79.82
2018-12-04T06:06:38.832Z,79.64
2018-12-04T06:09:06.600Z,79.73
2018-12-04T06:11:34.171Z,80.41
2018-12-04T06:14:01.772Z,80.38
2018-12-04T06:16:29.347Z,80.61
2018-12-04T06:18:57.039Z,80.32
2018-12-04T06:21:24.762Z,80.56
2018-12-04T06:23:52.451Z,80.99
2018-12-04T06:26:20.035Z,81.46
2018-12-04T06:28:47.700Z,81.52
2018-12-04T06:31:15.876Z,81.50
2018-12-04T06:33:43.481Z,81.95
2018-12-04T06:36:11.093Z,82.07
2018-12-04T06:38:38.694Z,82.66
2018-12-04T06:41:06.332Z,82.74
2018-12-04T06:43:34.074Z,83.13
2018-12-04T06:46:01.660Z,83.08
2018-12-04T06:48:29.249Z,83.78
2018-12-04T06:50:56.966Z,84.08
2018-12-04T06:53:24.623Z,84.23
2018-12-04T06:55:52.301Z,84.44
2018-12-04T06:58:19.956Z,84.65
2018-12-04T07:00:47.620Z,84.80
2018-12-04T07:03:15.288Z,85.22
2018-12-04T07:05:42.943Z,85.44
2018-12-04T07:08:10.612Z,85.34
2018-12-04T07:10:38.211Z,85.57
2018-12-04T07:13:05.832Z,86.01
2018-12-04T07:15:33.497Z,85.90
2018-12-04T07:18:01.083Z,86.13
2018-12-04T07:20:28.724Z,86.29
2018-12-04T07:22:57.150Z,86.19
2018-12-04T07:25:24.820Z,86.29
2018-12-04T07:27:52.488Z,86.21
2018-12-04T07:30:20.085Z,86.17
2018-12-04T07:32:47.663Z,86.48
2018-12-04T07:35:15.268Z,86.54
2018-12-04T07:37:42.856Z,86.23
2018-12-04T07:40:10.476Z,86.24
2018-12-04T07:42:38.059Z,86.16
2018-12-04T07:45:05.974Z,86.23
2018-12-04T07:47:33.615Z,86.25
2018-12-04T07:50:01.279Z,85.99
2018-12-04T07:52:28.953Z,86.09
2018-12-04T07:54:56.675Z,85.92
2018-12-04T07:57:24.276Z,85.68
2018-12-04T07:59:51.939Z,85.88
2018-12-04T08:02:19.693Z,85.44
2018-12-04T08:04:47.266Z,85.38
2018-12-04T08:07:14.872Z,85.27
2018-12-04T08:09:42.457Z,85.25
2018-12-04T08:12:10.220Z,85.13
2018-12-04T08:14:37.912Z,84.55
2018-12-04T08:17:05.670Z,84.99
2018-12-04T08:19:33.243Z,84.62
2018-12-04T08:22:00.858Z,84.74
2018-12-04T08:24:28.464Z,84.33
2018-12-04T08:26:56.228Z,84.17
2018-12-04T08:29:24.088Z,84.19
2018-12-04T08:31:51.701Z,83.59
2018-12-04T08:34:19.322Z,83.05
2018-12-04T08:36:46.924Z,82.80
2018-12-04T08:39:14.636Z,82.35
2018-12-04T08:41:42.299Z,81.90
2018-12-04T08:44:09.888Z,81.76
2018-12-04T08:46:37.527Z,81.51
2018-12-04T08:49:05.191Z,81.26
2018-12-04T08:51:32.861Z,81.05
2018-12-04T08:54:00.464Z,80.98
2018-12-04T08:56:28.173Z,80.70
2018-12-04T08:58:55.848Z,80.35
2018-12-04T09:01:23.431Z,80.18
2018-12-04T09:03:51.069Z,80.11
2018-12-04T09:06:18.732Z,79.68
2018-12-04T09:08:46.465Z,79.20
2018-12-04T09:11:14.270Z,79.39
2018-12-04T09:13:41.916Z,79.26
2018-12-04T09:16:09.595Z,78.72
2018-12-04T09:18:37.261Z,78.62
2018-12-04T09:21:05.020Z,78.50
2018-12-04T09:23:32.684Z,77.94
2018-12-04T09:26:00.445Z,77.88
2018-12-04T09:28:28.834Z,77.52
2018-12-04T09:30:56.593Z,77.80
2018-12-04T09:33:24.248Z,77.42
2018-12-04T09:35:51.835Z,77.07
2018-12-04T09:38:19.472Z,76.58
2018-12-04T09:40:47.141Z,76.58
2018-12-04T09:43:14.795Z,76.88
2018-12-04T09:45:42.555Z,76.78
2018-12-04T09:48:10.237Z,77.00
2018-12-04T09:50:37.895Z,76.36
2018-12-04T09:53:05.520Z,76.27
2018-12-04T09:55:33.215Z,76.33
2018-12-04T09:58:00.881Z,75.97
2018-12-04T10:00:28.633Z,75.04
2018-12-04T10:02:56.218Z,74.80
2018-12-04T10:05:23.864Z,74.89
2018-12-04T10:07:51.523Z,75.08
2018-12-04T10:10:19.185Z,74.81
2018-12-04T10:12:46.885Z,74.57
2018-12-04T10:15:14.611Z,74.56
2018-12-04T10:17:42.280Z,73.69
2018-12-04T10:20:09.944Z,73.97
2018-12-04T10:22:37.606Z,73.83
2018-12-04T10:25:05.467Z,73.46
2018-12-04T10:27:33.232Z,74.24
2018-12-04T10:30:00.904Z,72.90
2018-12-04T10:32:28.559Z,72.57
2018-12-04T10:34:56.157Z,71.72
2018-12-04T10:37:23.730Z,71.56
2018-12-04T10:39:51.351Z,71.56
2018-12-04T10:42:19.016Z,72.06
2018-12-04T10:44:46.671Z,71.44
2018-12-04T10:47:14.331Z,72.09
2018-12-04T10:49:41.999Z,71.34
2018-12-04T10:52:09.584Z,71.05
2018-12-04T10:54:37.189Z,70.88
2018-12-04T10:57:09.783Z,70.65
2018-12-04T10:59:36.231Z,70.63
2018-12-04T11:02:09.428Z,70.07
2018-12-04T11:04:37.092Z,70.57
2018-12-04T11:07:04.761Z,69.70
2018-12-04T11:09:32.416Z,69.71
2018-12-04T11:12:00.082Z,69.45
2018-12-04T11:14:27.740Z,68.66
2018-12-04T11:16:55.403Z,68.14
2018-12-04T11:19:24.392Z,68.08
2018-12-04T11:21:52.159Z,67.72
2018-12-04T11:24:19.840Z,67.82
2018-12-04T11:26:47.488Z,67.62
2018-12-04T11:29:15.152Z,67.44
2018-12-04T11:31:42.917Z,67.29
2018-12-04T11:34:10.496Z,66.87
2018-12-04T11:36:38.139Z,67.62
2018-12-04T11:39:06.807Z,66.71
2018-12-04T11:41:34.493Z,67.01
2018-12-04T11:44:02.155Z,67.30
2018-12-04T11:46:30.227Z,66.91
2018-12-04T11:48:57.884Z,66.90
2018-12-04T11:51:25.491Z,66.47
2018-12-04T11:53:53.076Z,66.32
2018-12-04T11:56:20.681Z,66.70
2018-12-04T11:58:48.335Z,65.57
2018-12-04T12:01:17.931Z,65.41
2018-12-04T12:03:45.612Z,65.17
2018-12-04T12:06:13.227Z,65.18
2018-12-04T12:08:40.829Z,64.39
2018-12-04T12:11:08.501Z,65.43
2018-12-04T12:13:36.161Z,64.79
2018-12-04T12:16:03.824Z,65.77
2018-12-04T12:18:31.480Z,66.40
2018-12-04T12:20:59.238Z,66.61
2018-12-04T12:23:26.907Z,66.12
2018-12-04T12:25:54.563Z,66.49
2018-12-04T12:28:22.231Z,67.11
2018-12-04T12:30:49.816Z,66.23
2018-12-04T12:33:17.452Z,65.35
2018-12-04T12:35:45.116Z,64.75
2018-12-04T12:38:12.721Z,65.79
2018-12-04T12:40:40.445Z,67.91
2018-12-04T12:43:08.045Z,68.93
2018-12-04T12:45:35.668Z,69.57
2018-12-04T12:48:03.330Z,69.53
2018-12-04T12:50:31.000Z,70.86
2018-12-04T12:52:58.656Z,72.02
2018-12-04T12:55:26.319Z,73.05
2018-12-04T12:57:53.915Z,74.10
2018-12-04T13:00:21.643Z,74.65
2018-12-04T13:02:49.292Z,75.08
2018-12-04T13:05:16.879Z,75.58
2018-12-04T13:07:44.527Z,75.88
2018-12-04T13:10:12.204Z,75.76
2018-12-04T13:12:39.851Z,75.88
2018-12-04T13:15:07.624Z,75.34
2018-12-04T13:17:35.293Z,75.67
2018-12-04T13:20:03.561Z,75.12
2018-12-04T13:22:31.216Z,75.35
2018-12-04T13:24:58.892Z,74.59
2018-12-04T13:27:26.475Z,74.70
2018-12-04T13:29:54.116Z,74.27
2018-12-04T13:32:21.781Z,73.17
2018-12-04T13:34:49.388Z,72.31
2018-12-04T13:37:16.967Z,72.58
2018-12-04T13:39:44.655Z,72.36
2018-12-04T13:42:12.239Z,70.14
2018-12-04T13:44:39.888Z,69.73
2018-12-04T13:47:07.480Z,68.48
2018-12-04T13:49:35.146Z,67.91
2018-12-04T13:52:03.035Z,66.88
2018-12-04T13:54:30.697Z,67.02
2018-12-04T13:56:58.323Z,66.86
2018-12-04T13:59:25.959Z,65.74
2018-12-04T14:01:53.762Z,65.83
2018-12-04T14:04:21.492Z,66.05
2018-12-04T14:06:49.558Z,66.67
2018-12-04T14:09:17.233Z,66.17
2018-12-04T14:11:45.001Z,65.21
2018-12-04T14:14:12.672Z,65.64
2018-12-04T14:16:40.280Z,65.47
2018-12-04T14:19:08.010Z,66.00
2018-12-04T14:21:35.711Z,66.31
2018-12-04T14:24:03.328Z,66.40
2018-12-04T14:26:30.938Z,66.95
2018-12-04T14:28:58.533Z,66.94
2018-12-04T14:31:26.230Z,67.02
2018-12-04T14:33:54.058Z,66.46
2018-12-04T14:36:21.728Z,66.51
2018-12-04T14:38:49.514Z,66.74
2018-12-04T14:41:17.261Z,66.23
2018-12-04T14:43:44.950Z,66.61
2018-12-04T14:46:12.651Z,66.95
2018-12-04T14:48:40.343Z,66.94
2018-12-04T14:51:08.101Z,67.38
2018-12-04T14:53:35.780Z,67.61
2018-12-04T14:56:03.438Z,67.81
2018-12-04T14:58:31.200Z,68.07
2018-12-04T15:00:58.992Z,68.03
2018-12-04T15:03:26.603Z,67.97
2018-12-04T15:05:54.420Z,67.77
2018-12-04T15:08:22.166Z,67.97
2018-12-04T15:10:49.863Z,67.94
2018-12-04T15:13:17.585Z,67.92
2018-12-04T15:15:45.259Z,67.74
2018-12-04T15:18:12.918Z,67.96
2018-12-04T15:20:40.512Z,68.27
2018-12-04T15:23:08.138Z,68.17
2018-12-04T15:25:35.905Z,68.89
2018-12-04T15:28:03.681Z,68.37
2018-12-04T15:30:31.299Z,68.35
2018-12-04T15:32:59.031Z,68.42
2018-12-04T15:35:26.703Z,68.89
2018-12-04T15:37:54.312Z,68.81
2018-12-04T15:40:21.984Z,68.91
2018-12-04T15:42:49.644Z,69.06
2018-12-04T15:45:17.308Z,69.29
2018-12-04T15:47:44.915Z,69.26
2018-12-04T15:50:12.668Z,69.21
2018-12-04T15:52:40.546Z,69.60
2018-12-04T15:55:08.263Z,69.80
2018-12-04T15:57:35.924Z,69.80
2018-12-04T16:00:05.853Z,69.44
2018-12-04T16:02:33.618Z,69.63
2018-12-04T16:05:01.280Z,70.78
2018-12-04T16:07:28.936Z,70.48
2018-12-04T16:09:56.520Z,70.76
2018-12-04T16:12:24.100Z,71.10
2018-12-04T16:14:51.916Z,70.78
2018-12-04T16:17:19.496Z,70.71
2018-12-04T16:19:47.257Z,70.68
2018-12-04T16:22:15.529Z,70.16
2018-12-04T16:24:43.186Z,70.50
2018-12-04T16:27:10.773Z,70.77
2018-12-04T16:29:38.379Z,70.71
2018-12-04T16:32:05.981Z,70.87
2018-12-04T16:34:33.588Z,71.01
2018-12-04T16:37:01.598Z,71.14
2018-12-04T16:39:29.203Z,71.30
2018-12-04T16:41:56.829Z,70.89
2018-12-04T16:44:24.483Z,71.16
2018-12-04T16:46:52.149Z,71.01
2018-12-04T16:49:19.752Z,71.77
2018-12-04T16:51:47.340Z,71.63
2018-12-04T16:54:14.944Z,70.95
2018-12-04T16:56:42.571Z,71.71
2018-12-04T16:59:10.176Z,71.59
2018-12-04T17:01:37.827Z,71.74
2018-12-04T17:04:05.592Z,71.56
2018-12-04T17:06:33.252Z,71.92
2018-12-04T17:09:00.948Z,72.06
2018-12-04T17:11:28.680Z,72.04
2018-12-04T17:13:56.347Z,71.81
2018-12-04T17:16:24.003Z,72.01
2018-12-04T17:18:51.739Z,72.22
2018-12-04T17:21:19.441Z,71.96
2018-12-04T17:23:47.090Z,71.55
2018-12-04T17:26:14.706Z,72.33
2018-12-04T17:28:42.320Z,72.16
2018-12-04T17:31:09.975Z,72.40
2018-12-04T17:33:37.647Z,72.94
2018-12-04T17:36:05.316Z,72.21
2018-12-04T17:38:32.963Z,72.08
2018-12-04T17:41:00.641Z,72.28
2018-12-04T17:43:28.271Z,71.70
2018-12-04T17:45:55.968Z,71.75
2018-12-04T17:48:23.552Z,71.78
2018-12-04T17:50:51.195Z,71.57
2018-12-04T17:53:18.948Z,71.57
2018-12-04T17:55:46.552Z,71.31
2018-12-04T17:58:14.267Z,71.50
2018-12-04T18:00:41.941Z,71.40
2018-12-04T18:03:09.603Z,71.18
2018-12-04T18:05:37.269Z,71.01
2018-12-04T18:08:04.892Z,71.20
2018-12-04T18:10:32.499Z,71.15
2018-12-04T18:13:00.084Z,71.19
2018-12-04T18:15:27.809Z,71.77
2018-12-04T18:17:55.394Z,71.65
2018-12-04T18:20:23.045Z,71.63
2018-12-04T18:22:50.795Z,72.03
2018-12-04T18:25:18.464Z,72.13
2018-12-04T18:27:46.133Z,72.19
2018-12-04T18:30:13.766Z,72.67
2018-12-04T18:32:41.457Z,73.04
2018-12-04T18:35:09.120Z,73.47
2018-12-04T18:37:36.771Z,72.77
2018-12-04T18:40:04.804Z,73.09
2018-12-04T18:42:32.512Z,73.55
2018-12-04T18:45:00.176Z,73.71
2018-12-04T18:47:27.845Z,74.06
2018-12-04T18:49:55.495Z,74.66
2018-12-04T18:52:23.897Z,74.13
2018-12-04T18:54:51.750Z,74.83
2018-12-04T18:57:19.409Z,74.70
2018-12-04T18:59:47.072Z,75.00
2018-12-04T19:02:14.747Z,74.48
2018-12-04T19:04:42.401Z,74.63
2018-12-04T19:07:10.156Z,74.25
2018-12-04T19:09:37.833Z,74.27
2018-12-04T19:12:05.497Z,74.23
2018-12-04T19:14:33.156Z,74.40
2018-12-04T19:17:00.808Z,74.08
2018-12-04T19:19:28.471Z,74.52
2018-12-04T19:21:56.139Z,74.00
2018-12-04T19:24:23.807Z,74.07
2018-12-04T19:26:51.378Z,74.53
2018-12-04T19:29:19.037Z,74.99
2018-12-04T19:31:46.688Z,74.40
2018-12-04T19:34:14.406Z,74.57
2018-12-04T19:36:42.192Z,74.82
2018-12-04T19:39:09.993Z,75.14
2018-12-04T19:41:37.627Z,75.37
2018-12-04T19:44:05.283Z,75.36
2018-12-04T19:46:32.929Z,75.55
2018-12-04T19:49:00.537Z,75.03
2018-12-04T19:51:28.852Z,75.44
2018-12-04T19:53:56.495Z,75.56
2018-12-04T19:56:24.414Z,75.12
2018-12-04T19:58:52.208Z,75.37
2018-12-04T20:01:20.082Z,75.49
2018-12-04T20:03:47.950Z,75.05
2018-12-04T20:06:15.641Z,75.42
2018-12-04T20:08:49.318Z,76.36
2018-12-04T20:11:16.999Z,75.62
2018-12-04T20:13:44.749Z,76.03
2018-12-04T20:16:12.613Z,76.00
2018-12-04T20:18:40.586Z,76.34
2018-12-04T20:21:08.244Z,77.22
2018-12-04T20:23:36.217Z,76.87
2018-12-04T20:26:04.207Z,77.39
2018-12-04T20:28:32.012Z,77.40
2018-12-04T20:30:59.637Z,77.06
2018-12-04T20:33:27.483Z,76.75
2018-12-04T20:35:55.310Z,76.79
2018-12-04T20:38:23.179Z,76.82
2018-12-04T20:40:50.850Z,76.75
2018-12-04T20:43:18.763Z,76.83
2018-12-04T20:45:46.441Z,76.87
2018-12-04T20:48:14.095Z,76.93
2018-12-04T20:50:41.762Z,77.22
2018-12-04T20:53:09.604Z,77.27
2018-12-04T20:55:37.236Z,77.60
2018-12-04T20:58:04.891Z,77.08
2018-12-04T21:00:32.715Z,77.47
2018-12-04T21:03:00.379Z,77.62
2018-12-04T21:05:28.143Z,77.49
2018-12-04T21:07:55.992Z,78.17
2018-12-04T21:10:23.681Z,78.20
2018-12-04T21:12:51.334Z,78.19
2018-12-04T21:15:18.999Z,77.77
2018-12-04T21:17:46.662Z,77.91
2018-12-04T21:20:14.335Z,78.68
2018-12-04T21:22:42.172Z,79.09
2018-12-04T21:25:09.864Z,78.99
2018-12-04T21:27:43.223Z,78.90
2018-12-04T21:30:16.494Z,78.96
2018-12-04T21:32:49.659Z,79.12
2018-12-04T21:38:25.098Z,79.37
2018-12-04T21:41:01.313Z,79.39
2018-12-04T21:43:34.639Z,79.90
2018-12-04T21:46:08.004Z,79.67
2018-12-04T21:48:35.603Z,79.96
2018-12-04T21:51:03.315Z,79.95
2018-12-04T21:53:31.152Z,80.13
2018-12-04T21:55:58.823Z,79.84
2018-12-04T21:58:26.479Z,80.24
2018-12-04T22:00:54.147Z,80.21
2018-12-04T22:03:21.813Z,80.53
2018-12-04T22:05:49.463Z,80.55
2018-12-04T22:08:17.125Z,80.85
2018-12-04T22:10:44.800Z,80.44
2018-12-04T22:13:12.461Z,80.45
2018-12-04T22:15:40.068Z,80.57
2018-12-04T22:18:07.779Z,80.70
2018-12-04T22:20:35.444Z,81.30
2018-12-04T22:23:03.112Z,81.17
2018-12-04T22:25:30.767Z,81.06
2018-12-04T22:27:58.476Z,81.35
2018-12-04T22:30:26.083Z,80.90
2018-12-04T22:32:53.765Z,81.66
2018-12-04T22:35:21.428Z,81.00
2018-12-04T22:37:49.178Z,81.18
2018-12-04T22:40:16.850Z,81.21
2018-12-04T22:42:44.476Z,81.39
2018-12-04T22:45:17.829Z,81.19
2018-12-04T22:47:45.555Z,81.42
2018-12-04T22:50:13.235Z,81.37
2018-12-04T22:52:40.890Z,81.63
2018-12-04T22:55:08.569Z,81.60
2018-12-04T22:57:36.198Z,81.86
2018-12-04T23:00:07.782Z,82.12
2018-12-04T23:02:35.440Z,82.47
2018-12-04T23:05:03.115Z,82.65
2018-12-04T23:07:30.864Z,82.71
2018-12-04T23:09:58.540Z,82.77
2018-12-04T23:12:26.291Z,83.29
2018-12-04T23:14:53.968Z,83.37
2018-12-04T23:17:21.635Z,83.09
2018-12-04T23:19:49.264Z,83.24
2018-12-04T23:22:16.876Z,82.78
2018-12-04T23:24:44.620Z,83.09
2018-12-04T23:27:12.282Z,83.16
2018-12-04T23:29:39.927Z,83.83
2018-12-04T23:32:07.536Z,83.40
2018-12-04T23:34:35.264Z,83.77
2018-12-04T23:37:02.908Z,83.62
2018-12-04T23:39:30.587Z,83.96
2018-12-04T23:41:58.183Z,83.87
2018-12-04T23:44:25.814Z,83.58
2018-12-04T23:46:53.467Z,83.83
2018-12-04T23:49:21.144Z,83.69
2018-12-04T23:51:48.799Z,83.82
2018-12-04T23:54:16.533Z,84.05
2018-12-04T23:56:44.271Z,83.78
2018-12-04T23:59:12.000Z,84.45
